createdAt,value
2018-09-05T00:00:50.282Z,1010.63
2018-09-05T00:01:50.297Z,1010.65
2018-09-05T00:02:50.260Z,1010.67
2018-09-05T00:03:50.249Z,1010.64
2018-09-05T00:04:50.236Z,1010.63
2018-09-05T00:05:50.229Z,1010.67
2018-09-05T00:06:50.238Z,1010.70
2018-09-05T00:07:50.203Z,1010.67
2018-09-05T00:08:50.193Z,1010.65
2018-09-05T00:09:50.179Z,1010.66
2018-09-05T00:10:50.169Z,1010.63
2018-09-05T00:11:50.183Z,1010.63
2018-09-05T00:12:50.147Z,1010.66
2018-09-05T00:13:50.135Z,1010.63
2018-09-05T00:14:50.126Z,1010.67
2018-09-05T00:15:50.114Z,1010.69
2018-09-05T00:16:50.128Z,1010.65
2018-09-05T00:17:50.091Z,1010.67
2018-09-05T00:18:50.081Z,1010.63
2018-09-05T00:19:50.067Z,1010.62
2018-09-05T00:20:50.059Z,1010.59
2018-09-05T00:21:50.069Z,1010.58
2018-09-05T00:22:50.033Z,1010.55
2018-09-05T00:23:50.024Z,1010.53
2018-09-05T00:24:50.013Z,1010.55
2018-09-05T00:25:49.999Z,1010.54
2018-09-05T00:26:50.013Z,1010.51
2018-09-05T00:27:49.976Z,1010.48
2018-09-05T00:28:49.965Z,1010.53
2018-09-05T00:29:49.955Z,1010.51
2018-09-05T00:30:49.944Z,1010.50
2018-09-05T00:31:49.955Z,1010.52
2018-09-05T00:32:49.920Z,1010.49
2018-09-05T00:33:49.908Z,1010.51
2018-09-05T00:34:49.899Z,1010.47
2018-09-05T00:35:49.886Z,1010.50
2018-09-05T00:36:49.898Z,1010.52
2018-09-05T00:37:49.862Z,1010.51
2018-09-05T00:38:49.851Z,1010.47
2018-09-05T00:39:49.841Z,1010.49
2018-09-05T00:40:49.829Z,1010.53
2018-09-05T00:41:49.843Z,1010.48
2018-09-05T00:42:49.809Z,1010.48
2018-09-05T00:43:49.796Z,1010.50
2018-09-05T00:44:49.783Z,1010.44
2018-09-05T00:45:49.773Z,1010.48
2018-09-05T00:46:49.763Z,1010.47
2018-09-05T00:47:49.772Z,1010.48
2018-09-05T00:48:49.739Z,1010.45
2018-09-05T00:49:49.728Z,1010.44
2018-09-05T00:50:49.719Z,1010.47
2018-09-05T00:51:49.707Z,1010.46
2018-09-05T00:52:49.717Z,1010.42
2018-09-05T00:53:49.682Z,1010.44
2018-09-05T00:54:49.672Z,1010.45
2018-09-05T00:55:49.659Z,1010.46
2018-09-05T00:56:49.650Z,1010.49
2018-09-05T00:57:49.660Z,1010.44
2018-09-05T00:58:49.627Z,1010.42
2018-09-05T00:59:49.616Z,1010.46
2018-09-05T01:00:49.604Z,1010.49
2018-09-05T01:01:49.592Z,1010.49
2018-09-05T01:02:49.605Z,1010.55
2018-09-05T01:03:49.570Z,1010.46
2018-09-05T01:04:49.564Z,1010.53
2018-09-05T01:05:49.551Z,1010.52
2018-09-05T01:06:49.539Z,1010.47
2018-09-05T01:07:49.549Z,1010.56
2018-09-05T01:08:49.514Z,1010.56
2018-09-05T01:09:49.502Z,1010.57
2018-09-05T01:10:49.493Z,1010.49
2018-09-05T01:11:49.479Z,1010.49
2018-09-05T01:12:49.499Z,1010.52
2018-09-05T01:13:49.459Z,1010.49
2018-09-05T01:14:49.485Z,1010.50
2018-09-05T01:15:49.434Z,1010.50
2018-09-05T01:16:49.424Z,1010.51
2018-09-05T01:17:49.436Z,1010.52
2018-09-05T01:18:49.402Z,1010.53
2018-09-05T01:19:49.390Z,1010.54
2018-09-05T01:20:49.383Z,1010.56
2018-09-05T01:21:49.369Z,1010.54
2018-09-05T01:22:49.379Z,1010.60
2018-09-05T01:23:49.345Z,1010.54
2018-09-05T01:24:49.334Z,1010.55
2018-09-05T01:25:49.322Z,1010.55
2018-09-05T01:26:49.312Z,1010.55
2018-09-05T01:27:49.325Z,1010.55
2018-09-05T01:28:49.298Z,1010.59
2018-09-05T01:29:49.278Z,1010.54
2018-09-05T01:30:49.267Z,1010.55
2018-09-05T01:31:49.255Z,1010.57
2018-09-05T01:32:49.270Z,1010.58
2018-09-05T01:33:49.236Z,1010.61
2018-09-05T01:34:49.222Z,1010.60
2018-09-05T01:35:49.215Z,1010.61
2018-09-05T01:36:49.199Z,1010.64
2018-09-05T01:37:49.213Z,1010.67
2018-09-05T01:38:49.179Z,1010.65
2018-09-05T01:39:49.168Z,1010.65
2018-09-05T01:40:49.154Z,1010.66
2018-09-05T01:41:49.142Z,1010.64
2018-09-05T01:42:49.158Z,1010.65
2018-09-05T01:43:49.122Z,1010.65
2018-09-05T01:44:49.110Z,1010.66
2018-09-05T01:45:49.100Z,1010.70
2018-09-05T01:46:49.088Z,1010.65
2018-09-05T01:47:49.100Z,1010.66
2018-09-05T01:48:49.065Z,1010.65
2018-09-05T01:49:49.053Z,1010.64
2018-09-05T01:50:49.043Z,1010.63
2018-09-05T01:51:49.032Z,1010.63
2018-09-05T01:52:49.043Z,1010.62
2018-09-05T01:53:49.009Z,1010.63
2018-09-05T01:54:48.998Z,1010.62
2018-09-05T01:55:48.988Z,1010.65
2018-09-05T01:56:48.975Z,1010.61
2018-09-05T01:57:48.986Z,1010.59
2018-09-05T01:58:48.954Z,1010.65
2018-09-05T01:59:48.943Z,1010.64
2018-09-05T02:00:48.930Z,1010.66
2018-09-05T02:01:48.920Z,1010.66
2018-09-05T02:02:48.935Z,1010.71
2018-09-05T02:03:48.897Z,1010.63
2018-09-05T02:04:48.886Z,1010.68
2018-09-05T02:05:48.875Z,1010.67
2018-09-05T02:06:48.865Z,1010.65
2018-09-05T02:07:48.874Z,1010.63
2018-09-05T02:08:48.840Z,1010.67
2018-09-05T02:09:48.830Z,1010.66
2018-09-05T02:10:48.817Z,1010.64
2018-09-05T02:11:48.811Z,1010.64
2018-09-05T02:12:48.820Z,1010.65
2018-09-05T02:13:48.786Z,1010.63
2018-09-05T02:14:48.772Z,1010.64
2018-09-05T02:15:48.762Z,1010.66
2018-09-05T02:16:48.750Z,1010.67
2018-09-05T02:17:48.764Z,1010.61
2018-09-05T02:18:48.728Z,1010.63
2018-09-05T02:19:48.718Z,1010.62
2018-09-05T02:20:48.706Z,1010.62
2018-09-05T02:21:48.700Z,1010.58
2018-09-05T02:22:48.708Z,1010.63
2018-09-05T02:23:48.673Z,1010.59
2018-09-05T02:24:48.661Z,1010.60
2018-09-05T02:25:48.649Z,1010.59
2018-09-05T02:26:48.637Z,1010.58
2018-09-05T02:27:48.628Z,1010.61
2018-09-05T02:28:48.640Z,1010.59
2018-09-05T02:29:48.606Z,1010.62
2018-09-05T02:30:48.592Z,1010.60
2018-09-05T02:31:48.582Z,1010.61
2018-09-05T02:32:48.598Z,1010.60
2018-09-05T02:33:48.558Z,1010.58
2018-09-05T02:34:48.551Z,1010.58
2018-09-05T02:35:48.538Z,1010.59
2018-09-05T02:36:48.525Z,1010.59
2018-09-05T02:37:48.516Z,1010.59
2018-09-05T02:38:48.529Z,1010.57
2018-09-05T02:39:48.492Z,1010.57
2018-09-05T02:40:48.528Z,1010.62
2018-09-05T02:41:48.471Z,1010.60
2018-09-05T02:42:48.460Z,1010.60
2018-09-05T02:43:48.472Z,1010.58
2018-09-05T02:44:48.437Z,1010.60
2018-09-05T02:45:48.425Z,1010.63
2018-09-05T02:46:48.414Z,1010.59
2018-09-05T02:47:48.405Z,1010.59
2018-09-05T02:48:48.416Z,1010.63
2018-09-05T02:49:48.380Z,1010.56
2018-09-05T02:50:48.368Z,1010.59
2018-09-05T02:51:48.361Z,1010.61
2018-09-05T02:52:48.350Z,1010.59
2018-09-05T02:53:48.358Z,1010.60
2018-09-05T02:54:48.324Z,1010.60
2018-09-05T02:55:48.312Z,1010.61
2018-09-05T02:56:48.304Z,1010.61
2018-09-05T02:57:48.292Z,1010.65
2018-09-05T02:58:48.303Z,1010.63
2018-09-05T02:59:48.271Z,1010.68
2018-09-05T03:00:48.257Z,1010.67
2018-09-05T03:01:48.251Z,1010.68
2018-09-05T03:02:48.233Z,1010.69
2018-09-05T03:03:48.245Z,1010.65
2018-09-05T03:04:48.212Z,1010.64
2018-09-05T03:05:48.201Z,1010.65
2018-09-05T03:06:48.192Z,1010.63
2018-09-05T03:07:48.177Z,1010.65
2018-09-05T03:08:48.192Z,1010.66
2018-09-05T03:09:48.155Z,1010.66
2018-09-05T03:10:48.145Z,1010.64
2018-09-05T03:11:48.133Z,1010.63
2018-09-05T03:12:48.124Z,1010.62
2018-09-05T03:13:48.135Z,1010.58
2018-09-05T03:14:48.104Z,1010.60
2018-09-05T03:15:48.089Z,1010.60
2018-09-05T03:16:48.077Z,1010.56
2018-09-05T03:17:48.066Z,1010.57
2018-09-05T03:18:48.079Z,1010.60
2018-09-05T03:19:48.043Z,1010.57
2018-09-05T03:20:48.033Z,1010.57
2018-09-05T03:21:48.062Z,1010.57
2018-09-05T03:22:48.009Z,1010.61
2018-09-05T03:23:48.022Z,1010.61
2018-09-05T03:24:47.986Z,1010.63
2018-09-05T03:25:47.982Z,1010.62
2018-09-05T03:26:47.965Z,1010.65
2018-09-05T03:27:47.968Z,1010.61
2018-09-05T03:28:47.966Z,1010.65
2018-09-05T03:29:47.930Z,1010.62
2018-09-05T03:30:47.922Z,1010.65
2018-09-05T03:31:47.909Z,1010.62
2018-09-05T03:32:47.998Z,1010.58
2018-09-05T03:33:47.911Z,1010.61
2018-09-05T03:34:47.876Z,1010.60
2018-09-05T03:35:47.864Z,1010.60
2018-09-05T03:36:47.853Z,1010.63
2018-09-05T03:37:47.845Z,1010.58
2018-09-05T03:38:47.852Z,1010.59
2018-09-05T03:39:47.820Z,1010.58
2018-09-05T03:40:47.808Z,1010.60
2018-09-05T03:41:47.797Z,1010.63
2018-09-05T03:42:47.786Z,1010.62
2018-09-05T03:43:47.799Z,1010.60
2018-09-05T03:44:47.763Z,1010.65
2018-09-05T03:45:47.752Z,1010.58
2018-09-05T03:46:47.740Z,1010.62
2018-09-05T03:47:47.731Z,1010.64
2018-09-05T03:48:47.744Z,1010.64
2018-09-05T03:49:47.766Z,1010.62
2018-09-05T03:50:47.697Z,1010.62
2018-09-05T03:51:47.686Z,1010.61
2018-09-05T03:52:47.674Z,1010.61
2018-09-05T03:53:47.686Z,1010.64
2018-09-05T03:54:47.651Z,1010.62
2018-09-05T03:55:47.640Z,1010.64
2018-09-05T03:56:47.629Z,1010.61
2018-09-05T03:57:47.617Z,1010.62
2018-09-05T03:58:47.631Z,1010.62
2018-09-05T03:59:47.596Z,1010.64
2018-09-05T04:00:47.583Z,1010.64
2018-09-05T04:01:47.572Z,1010.63
2018-09-05T04:02:47.561Z,1010.61
2018-09-05T04:03:47.573Z,1010.61
2018-09-05T04:04:47.539Z,1010.61
2018-09-05T04:05:47.526Z,1010.64
2018-09-05T04:06:47.517Z,1010.61
2018-09-05T04:07:47.508Z,1010.66
2018-09-05T04:08:47.519Z,1010.65
2018-09-05T04:09:47.484Z,1010.65
2018-09-05T04:10:47.473Z,1010.66
2018-09-05T04:11:47.460Z,1010.68
2018-09-05T04:12:47.449Z,1010.66
2018-09-05T04:13:47.440Z,1010.70
2018-09-05T04:14:47.453Z,1010.68
2018-09-05T04:15:47.416Z,1010.69
2018-09-05T04:16:47.404Z,1010.70
2018-09-05T04:17:47.395Z,1010.65
2018-09-05T04:18:47.385Z,1010.72
2018-09-05T04:19:47.396Z,1010.69
2018-09-05T04:20:47.362Z,1010.63
2018-09-05T04:21:47.350Z,1010.63
2018-09-05T04:22:47.341Z,1010.65
2018-09-05T04:23:47.330Z,1010.65
2018-09-05T04:24:47.338Z,1010.64
2018-09-05T04:25:47.303Z,1010.64
2018-09-05T04:26:47.295Z,1010.65
2018-09-05T04:27:47.281Z,1010.65
2018-09-05T04:28:47.271Z,1010.62
2018-09-05T04:29:47.307Z,1010.66
2018-09-05T04:30:47.249Z,1010.61
2018-09-05T04:31:47.238Z,1010.59
2018-09-05T04:32:47.225Z,1010.64
2018-09-05T04:33:47.225Z,1010.63
2018-09-05T04:34:47.227Z,1010.57
2018-09-05T04:35:47.195Z,1010.63
2018-09-05T04:36:47.184Z,1010.63
2018-09-05T04:37:47.172Z,1010.61
2018-09-05T04:38:47.160Z,1010.63
2018-09-05T04:39:47.169Z,1010.64
2018-09-05T04:40:47.137Z,1010.60
2018-09-05T04:41:47.131Z,1010.63
2018-09-05T04:42:47.115Z,1010.62
2018-09-05T04:43:47.101Z,1010.61
2018-09-05T04:44:47.119Z,1010.59
2018-09-05T04:45:47.082Z,1010.60
2018-09-05T04:46:47.069Z,1010.55
2018-09-05T04:47:47.057Z,1010.57
2018-09-05T04:48:47.045Z,1010.58
2018-09-05T04:49:47.057Z,1010.63
2018-09-05T04:50:47.022Z,1010.54
2018-09-05T04:51:47.013Z,1010.59
2018-09-05T04:52:47.128Z,1010.63
2018-09-05T04:53:46.991Z,1010.58
2018-09-05T04:54:47.009Z,1010.60
2018-09-05T04:55:46.968Z,1010.62
2018-09-05T04:56:46.956Z,1010.63
2018-09-05T04:57:46.947Z,1010.65
2018-09-05T04:58:46.937Z,1010.61
2018-09-05T04:59:46.944Z,1010.61
2018-09-05T05:00:46.913Z,1010.67
2018-09-05T05:01:46.901Z,1010.60
2018-09-05T05:02:46.890Z,1010.63
2018-09-05T05:03:46.879Z,1010.64
2018-09-05T05:04:46.892Z,1010.63
2018-09-05T05:05:46.936Z,1010.64
2018-09-05T05:06:46.844Z,1010.67
2018-09-05T05:07:46.834Z,1010.68
2018-09-05T05:08:46.824Z,1010.66
2018-09-05T05:09:46.838Z,1010.66
2018-09-05T05:10:46.801Z,1010.68
2018-09-05T05:11:46.792Z,1010.66
2018-09-05T05:12:46.780Z,1010.70
2018-09-05T05:13:46.815Z,1010.74
2018-09-05T05:14:46.785Z,1010.73
2018-09-05T05:15:46.745Z,1010.75
2018-09-05T05:16:46.735Z,1010.76
2018-09-05T05:17:46.723Z,1010.76
2018-09-05T05:18:46.711Z,1010.77
2018-09-05T05:19:46.724Z,1010.77
2018-09-05T05:20:46.689Z,1010.76
2018-09-05T05:21:46.678Z,1010.76
2018-09-05T05:22:46.665Z,1010.82
2018-09-05T05:23:46.660Z,1010.79
2018-09-05T05:24:46.668Z,1010.77
2018-09-05T05:25:46.632Z,1010.81
2018-09-05T05:26:46.621Z,1010.80
2018-09-05T05:27:46.608Z,1010.81
2018-09-05T05:28:46.598Z,1010.81
2018-09-05T05:29:46.613Z,1010.80
2018-09-05T05:30:46.575Z,1010.76
2018-09-05T05:31:46.565Z,1010.78
2018-09-05T05:32:46.624Z,1010.80
2018-09-05T05:33:46.543Z,1010.83
2018-09-05T05:34:46.554Z,1010.83
2018-09-05T05:35:46.523Z,1010.86
2018-09-05T05:36:46.509Z,1010.87
2018-09-05T05:37:46.505Z,1010.87
2018-09-05T05:38:46.491Z,1010.83
2018-09-05T05:39:46.500Z,1010.84
2018-09-05T05:40:46.463Z,1010.85
2018-09-05T05:41:46.459Z,1010.91
2018-09-05T05:42:46.441Z,1010.87
2018-09-05T05:43:46.432Z,1010.88
2018-09-05T05:44:46.443Z,1010.85
2018-09-05T05:45:46.411Z,1010.92
2018-09-05T05:46:46.508Z,1010.89
2018-09-05T05:47:46.386Z,1010.89
2018-09-05T05:48:46.373Z,1010.86
2018-09-05T05:49:46.387Z,1010.87
2018-09-05T05:50:46.351Z,1010.89
2018-09-05T05:51:46.342Z,1010.94
2018-09-05T05:52:46.329Z,1010.90
2018-09-05T05:53:46.316Z,1010.89
2018-09-05T05:54:46.330Z,1010.93
2018-09-05T05:55:46.296Z,1010.94
2018-09-05T05:56:46.286Z,1010.95
2018-09-05T05:57:46.272Z,1010.96
2018-09-05T05:58:46.261Z,1010.94
2018-09-05T05:59:46.253Z,1010.97
2018-09-05T06:00:46.321Z,1010.99
2018-09-05T06:01:46.229Z,1010.96
2018-09-05T06:02:46.246Z,1010.98
2018-09-05T06:03:46.206Z,1010.98
2018-09-05T06:04:46.197Z,1010.97
2018-09-05T06:05:46.208Z,1011.01
2018-09-05T06:06:46.170Z,1011.00
2018-09-05T06:07:46.160Z,1011.00
2018-09-05T06:08:46.148Z,1011.02
2018-09-05T06:09:46.140Z,1011.04
2018-09-05T06:10:46.150Z,1011.02
2018-09-05T06:11:46.115Z,1011.01
2018-09-05T06:12:46.104Z,1011.02
2018-09-05T06:13:46.093Z,1011.06
2018-09-05T06:14:46.085Z,1011.02
2018-09-05T06:15:46.096Z,1011.04
2018-09-05T06:16:46.059Z,1011.06
2018-09-05T06:17:46.190Z,1011.05
2018-09-05T06:18:46.037Z,1011.04
2018-09-05T06:19:46.025Z,1011.02
2018-09-05T06:20:46.037Z,1011.06
2018-09-05T06:21:46.001Z,1011.07
2018-09-05T06:22:45.994Z,1011.06
2018-09-05T06:23:45.987Z,1011.08
2018-09-05T06:24:45.968Z,1011.11
2018-09-05T06:25:45.981Z,1011.12
2018-09-05T06:26:45.947Z,1011.10
2018-09-05T06:27:45.962Z,1011.08
2018-09-05T06:28:45.927Z,1011.05
2018-09-05T06:29:45.913Z,1011.10
2018-09-05T06:30:46.209Z,1011.09
2018-09-05T06:31:45.891Z,1011.11
2018-09-05T06:32:45.877Z,1011.04
2018-09-05T06:33:45.866Z,1011.08
2018-09-05T06:34:45.855Z,1011.05
2018-09-05T06:35:45.867Z,1011.08
2018-09-05T06:36:45.831Z,1011.08
2018-09-05T06:37:45.819Z,1011.06
2018-09-05T06:38:45.813Z,1011.10
2018-09-05T06:39:45.796Z,1011.11
2018-09-05T06:40:45.808Z,1011.13
2018-09-05T06:41:45.777Z,1011.13
2018-09-05T06:42:45.764Z,1011.13
2018-09-05T06:43:45.753Z,1011.12
2018-09-05T06:44:45.743Z,1011.14
2018-09-05T06:45:45.732Z,1011.08
2018-09-05T06:46:45.739Z,1011.09
2018-09-05T06:47:45.707Z,1011.08
2018-09-05T06:48:45.694Z,1011.14
2018-09-05T06:49:45.687Z,1011.13
2018-09-05T06:50:45.676Z,1011.11
2018-09-05T06:51:45.685Z,1011.12
2018-09-05T06:52:45.649Z,1011.14
2018-09-05T06:53:45.639Z,1011.13
2018-09-05T06:54:45.628Z,1011.13
2018-09-05T06:55:45.617Z,1011.12
2018-09-05T06:56:45.631Z,1011.13
2018-09-05T06:57:45.594Z,1011.14
2018-09-05T06:58:45.584Z,1011.10
2018-09-05T06:59:45.573Z,1011.07
2018-09-05T07:00:45.560Z,1011.10
2018-09-05T07:01:45.574Z,1011.08
2018-09-05T07:02:45.538Z,1011.12
2018-09-05T07:03:45.533Z,1011.10
2018-09-05T07:04:45.521Z,1011.15
2018-09-05T07:05:45.504Z,1011.13
2018-09-05T07:06:45.538Z,1011.14
2018-09-05T07:07:45.481Z,1011.14
2018-09-05T07:08:45.471Z,1011.16
2018-09-05T07:09:45.459Z,1011.12
2018-09-05T07:10:45.448Z,1011.16
2018-09-05T07:11:45.460Z,1011.18
2018-09-05T07:12:45.425Z,1011.13
2018-09-05T07:13:45.414Z,1011.14
2018-09-05T07:14:45.403Z,1011.16
2018-09-05T07:15:45.391Z,1011.10
2018-09-05T07:16:45.404Z,1011.11
2018-09-05T07:17:45.368Z,1011.10
2018-09-05T07:18:45.359Z,1011.12
2018-09-05T07:19:45.346Z,1011.10
2018-09-05T07:20:45.336Z,1011.09
2018-09-05T07:21:45.346Z,1011.11
2018-09-05T07:22:45.313Z,1011.11
2018-09-05T07:23:45.302Z,1011.10
2018-09-05T07:24:45.295Z,1011.09
2018-09-05T07:25:45.285Z,1011.12
2018-09-05T07:26:45.294Z,1011.11
2018-09-05T07:27:45.267Z,1011.13
2018-09-05T07:28:45.244Z,1011.10
2018-09-05T07:29:45.234Z,1011.13
2018-09-05T07:30:45.305Z,1011.12
2018-09-05T07:31:45.239Z,1011.13
2018-09-05T07:32:45.200Z,1011.09
2018-09-05T07:33:45.190Z,1011.11
2018-09-05T07:34:45.178Z,1011.13
2018-09-05T07:35:45.247Z,1011.13
2018-09-05T07:36:45.180Z,1011.12
2018-09-05T07:37:45.144Z,1011.09
2018-09-05T07:38:45.134Z,1011.12
2018-09-05T07:39:45.122Z,1011.05
2018-09-05T07:40:45.112Z,1011.06
2018-09-05T07:41:45.465Z,1011.06
2018-09-05T07:42:45.360Z,1011.06
2018-09-05T07:43:45.148Z,1011.10
2018-09-05T07:44:45.140Z,1011.07
2018-09-05T07:45:45.058Z,1011.10
2018-09-05T07:46:45.044Z,1011.09
2018-09-05T07:47:45.134Z,1011.09
2018-09-05T07:48:45.022Z,1011.07
2018-09-05T07:49:45.010Z,1011.08
2018-09-05T07:50:45.132Z,1011.11
2018-09-05T07:51:44.990Z,1011.13
2018-09-05T07:52:45.001Z,1011.11
2018-09-05T07:53:44.965Z,1011.14
2018-09-05T07:54:44.960Z,1011.11
2018-09-05T07:55:44.942Z,1011.13
2018-09-05T07:56:44.933Z,1011.14
2018-09-05T07:57:44.942Z,1011.12
2018-09-05T07:58:44.908Z,1011.13
2018-09-05T07:59:44.898Z,1011.10
2018-09-05T08:00:44.886Z,1011.07
2018-09-05T08:01:44.876Z,1011.10
2018-09-05T08:02:44.905Z,1011.11
2018-09-05T08:03:44.855Z,1011.12
2018-09-05T08:04:44.840Z,1011.12
2018-09-05T08:05:44.830Z,1011.08
2018-09-05T08:06:44.819Z,1011.11
2018-09-05T08:07:44.831Z,1011.09
2018-09-05T08:08:44.797Z,1011.11
2018-09-05T08:09:44.785Z,1011.12
2018-09-05T08:10:44.774Z,1011.11
2018-09-05T08:11:44.767Z,1011.10
2018-09-05T08:12:44.775Z,1011.12
2018-09-05T08:13:44.740Z,1011.08
2018-09-05T08:14:44.729Z,1011.08
2018-09-05T08:15:44.717Z,1011.09
2018-09-05T08:16:44.707Z,1011.11
2018-09-05T08:17:44.732Z,1011.13
2018-09-05T08:18:44.682Z,1011.07
2018-09-05T08:19:44.673Z,1011.08
2018-09-05T08:20:44.664Z,1011.05
2018-09-05T08:21:44.648Z,1011.05
2018-09-05T08:22:44.661Z,1011.09
2018-09-05T08:23:44.627Z,1011.02
2018-09-05T08:24:44.616Z,1010.93
2018-09-05T08:25:44.604Z,1011.03
2018-09-05T08:26:44.595Z,1011.08
2018-09-05T08:27:44.608Z,1011.06
2018-09-05T08:28:44.594Z,1011.01
2018-09-05T08:29:44.560Z,1011.07
2018-09-05T08:30:44.550Z,1011.07
2018-09-05T08:31:44.542Z,1011.04
2018-09-05T08:32:44.552Z,1011.01
2018-09-05T08:33:44.517Z,1011.03
2018-09-05T08:34:44.574Z,1011.05
2018-09-05T08:35:44.788Z,1010.99
2018-09-05T08:36:44.632Z,1011.04
2018-09-05T08:37:44.716Z,1011.05
2018-09-05T08:38:44.476Z,1011.04
2018-09-05T08:39:44.448Z,1011.03
2018-09-05T08:40:44.441Z,1011.04
2018-09-05T08:41:44.512Z,1011.04
2018-09-05T08:42:44.494Z,1011.02
2018-09-05T08:43:44.588Z,1011.00
2018-09-05T08:44:44.594Z,1011.03
2018-09-05T08:45:44.622Z,1011.02
2018-09-05T08:46:44.430Z,1011.03
2018-09-05T08:47:44.381Z,1011.01
2018-09-05T08:48:44.483Z,1011.01
2018-09-05T08:49:44.341Z,1011.05
2018-09-05T08:50:44.329Z,1011.01
2018-09-05T08:51:44.315Z,1011.00
2018-09-05T08:52:44.387Z,1011.05
2018-09-05T08:53:44.298Z,1011.01
2018-09-05T08:54:44.281Z,1010.96
2018-09-05T08:55:44.290Z,1010.97
2018-09-05T08:56:44.258Z,1010.94
2018-09-05T08:57:44.270Z,1010.97
2018-09-05T08:58:44.277Z,1010.97
2018-09-05T08:59:44.226Z,1010.94
2018-09-05T09:00:44.213Z,1010.97
2018-09-05T09:01:44.205Z,1010.92
2018-09-05T09:02:44.219Z,1010.92
2018-09-05T09:03:44.183Z,1010.91
2018-09-05T09:04:44.346Z,1010.95
2018-09-05T09:05:44.158Z,1010.93
2018-09-05T09:06:44.147Z,1010.92
2018-09-05T09:07:44.157Z,1010.91
2018-09-05T09:08:44.720Z,1010.90
2018-09-05T09:09:44.113Z,1010.88
2018-09-05T09:10:44.104Z,1010.86
2018-09-05T09:11:44.107Z,1010.89
2018-09-05T09:12:44.102Z,1010.86
2018-09-05T09:13:44.069Z,1010.91
2018-09-05T09:14:44.061Z,1010.88
2018-09-05T09:15:44.046Z,1010.89
2018-09-05T09:16:44.035Z,1010.91
2018-09-05T09:17:44.026Z,1010.88
2018-09-05T09:18:44.037Z,1010.85
2018-09-05T09:19:44.002Z,1010.88
2018-09-05T09:20:43.990Z,1010.85
2018-09-05T09:21:43.979Z,1010.84
2018-09-05T09:22:43.969Z,1010.84
2018-09-05T09:23:43.980Z,1010.85
2018-09-05T09:24:43.945Z,1010.87
2018-09-05T09:25:43.934Z,1010.82
2018-09-05T09:26:43.921Z,1010.85
2018-09-05T09:27:43.911Z,1010.80
2018-09-05T09:28:43.924Z,1010.82
2018-09-05T09:29:43.890Z,1010.81
2018-09-05T09:30:43.876Z,1010.81
2018-09-05T09:31:43.864Z,1010.83
2018-09-05T09:32:43.855Z,1010.80
2018-09-05T09:33:43.922Z,1010.69
2018-09-05T09:34:43.832Z,1010.77
2018-09-05T09:35:43.821Z,1010.78
2018-09-05T09:36:43.809Z,1010.78
2018-09-05T09:37:43.901Z,1010.76
2018-09-05T09:38:43.785Z,1010.75
2018-09-05T09:39:43.775Z,1010.79
2018-09-05T09:40:43.765Z,1010.75
2018-09-05T09:41:43.755Z,1010.79
2018-09-05T09:42:43.741Z,1010.77
2018-09-05T09:43:43.757Z,1010.73
2018-09-05T09:44:43.720Z,1010.74
2018-09-05T09:45:43.707Z,1010.75
2018-09-05T09:46:43.771Z,1010.71
2018-09-05T09:47:43.686Z,1010.68
2018-09-05T09:48:43.696Z,1010.73
2018-09-05T09:49:43.665Z,1010.70
2018-09-05T09:50:43.651Z,1010.71
2018-09-05T09:51:43.640Z,1010.70
2018-09-05T09:52:43.630Z,1010.68
2018-09-05T09:53:43.652Z,1010.70
2018-09-05T09:54:43.605Z,1010.69
2018-09-05T09:55:43.594Z,1010.66
2018-09-05T09:56:43.637Z,1010.66
2018-09-05T09:57:43.573Z,1010.64
2018-09-05T09:58:43.585Z,1010.64
2018-09-05T09:59:43.550Z,1010.65
2018-09-05T10:00:43.540Z,1010.61
2018-09-05T10:01:43.528Z,1010.64
2018-09-05T10:02:43.517Z,1010.62
2018-09-05T10:03:43.685Z,1010.61
2018-09-05T10:04:43.498Z,1010.56
2018-09-05T10:05:43.483Z,1010.56
2018-09-05T10:06:43.502Z,1010.57
2018-09-05T10:07:43.460Z,1010.60
2018-09-05T10:08:43.471Z,1010.56
2018-09-05T10:09:43.524Z,1010.58
2018-09-05T10:10:43.556Z,1010.51
2018-09-05T10:11:43.418Z,1010.47
2018-09-05T10:12:43.404Z,1010.50
2018-09-05T10:13:43.415Z,1010.49
2018-09-05T10:14:43.385Z,1010.47
2018-09-05T10:15:43.370Z,1010.44
2018-09-05T10:16:43.406Z,1010.40
2018-09-05T10:17:43.348Z,1010.41
2018-09-05T10:18:43.360Z,1010.41
2018-09-05T10:19:43.325Z,1010.38
2018-09-05T10:20:43.314Z,1010.38
2018-09-05T10:21:43.302Z,1010.38
2018-09-05T10:22:43.369Z,1010.37
2018-09-05T10:23:43.304Z,1010.37
2018-09-05T10:24:43.269Z,1010.33
2018-09-05T10:25:43.260Z,1010.34
2018-09-05T10:26:43.247Z,1010.32
2018-09-05T10:27:43.236Z,1010.32
2018-09-05T10:28:43.249Z,1010.32
2018-09-05T10:29:43.214Z,1010.34
2018-09-05T10:30:43.201Z,1010.30
2018-09-05T10:31:43.209Z,1010.27
2018-09-05T10:32:43.180Z,1010.27
2018-09-05T10:33:43.198Z,1010.29
2018-09-05T10:34:43.157Z,1010.28
2018-09-05T10:35:43.146Z,1010.24
2018-09-05T10:36:43.136Z,1010.25
2018-09-05T10:37:43.129Z,1010.28
2018-09-05T10:38:43.136Z,1010.24
2018-09-05T10:39:43.102Z,1010.27
2018-09-05T10:40:43.092Z,1010.24
2018-09-05T10:41:43.082Z,1010.23
2018-09-05T10:42:43.068Z,1010.21
2018-09-05T10:43:43.082Z,1010.21
2018-09-05T10:44:43.056Z,1010.21
2018-09-05T10:45:43.041Z,1010.18
2018-09-05T10:46:43.027Z,1010.23
2018-09-05T10:47:43.015Z,1010.23
2018-09-05T10:48:43.027Z,1010.17
2018-09-05T10:49:42.993Z,1010.22
2018-09-05T10:50:42.984Z,1010.22
2018-09-05T10:51:42.976Z,1010.17
2018-09-05T10:52:42.960Z,1010.15
2018-09-05T10:53:42.974Z,1010.11
2018-09-05T10:54:42.939Z,1010.11
2018-09-05T10:55:42.933Z,1010.10
2018-09-05T10:56:42.919Z,1010.09
2018-09-05T10:57:42.908Z,1010.13
2018-09-05T10:58:42.898Z,1010.10
2018-09-05T10:59:42.909Z,1010.12
2018-09-05T11:00:42.874Z,1010.07
2018-09-05T11:01:42.865Z,1010.14
2018-09-05T11:02:42.852Z,1010.09
2018-09-05T11:03:42.841Z,1010.14
2018-09-05T11:04:42.854Z,1010.14
2018-09-05T11:05:42.820Z,1010.11
2018-09-05T11:06:42.809Z,1010.12
2018-09-05T11:07:42.799Z,1010.09
2018-09-05T11:08:42.788Z,1010.06
2018-09-05T11:09:42.801Z,1010.04
2018-09-05T11:10:42.781Z,1010.11
2018-09-05T11:11:42.754Z,1010.05
2018-09-05T11:12:42.742Z,1010.08
2018-09-05T11:13:42.732Z,1010.06
2018-09-05T11:14:42.748Z,1010.05
2018-09-05T11:15:42.713Z,1009.97
2018-09-05T11:16:42.698Z,1009.99
2018-09-05T11:17:42.690Z,1009.99
2018-09-05T11:18:42.677Z,1009.92
2018-09-05T11:19:42.689Z,1009.94
2018-09-05T11:20:42.654Z,1009.96
2018-09-05T11:21:42.643Z,1009.95
2018-09-05T11:22:42.632Z,1009.93
2018-09-05T11:23:42.620Z,1009.92
2018-09-05T11:24:42.636Z,1009.91
2018-09-05T11:25:42.602Z,1009.89
2018-09-05T11:26:42.588Z,1009.86
2018-09-05T11:27:42.621Z,1009.86
2018-09-05T11:28:42.564Z,1009.83
2018-09-05T11:29:42.581Z,1009.87
2018-09-05T11:30:42.545Z,1009.84
2018-09-05T11:31:42.531Z,1009.83
2018-09-05T11:32:42.519Z,1009.88
2018-09-05T11:33:42.507Z,1009.82
2018-09-05T11:34:42.519Z,1009.81
2018-09-05T11:35:42.486Z,1009.80
2018-09-05T11:36:42.473Z,1009.78
2018-09-05T11:37:42.463Z,1009.74
2018-09-05T11:38:42.451Z,1009.75
2018-09-05T11:39:42.466Z,1009.78
2018-09-05T11:40:42.431Z,1009.70
2018-09-05T11:41:42.419Z,1009.72
2018-09-05T11:42:42.408Z,1009.76
2018-09-05T11:43:42.397Z,1009.68
2018-09-05T11:44:42.408Z,1009.74
2018-09-05T11:45:42.375Z,1009.69
2018-09-05T11:46:42.362Z,1009.72
2018-09-05T11:47:42.350Z,1009.73
2018-09-05T11:48:42.340Z,1009.69
2018-09-05T11:49:42.349Z,1009.71
2018-09-05T11:50:42.316Z,1009.68
2018-09-05T11:51:42.305Z,1009.73
2018-09-05T11:52:42.293Z,1009.72
2018-09-05T11:53:42.282Z,1009.75
2018-09-05T11:54:42.296Z,1009.71
2018-09-05T11:55:42.259Z,1009.71
2018-09-05T11:56:42.248Z,1009.71
2018-09-05T11:57:42.238Z,1009.69
2018-09-05T11:58:42.224Z,1009.66
2018-09-05T11:59:42.236Z,1009.67
2018-09-05T12:00:42.203Z,1009.69
2018-09-05T12:01:42.192Z,1009.72
2018-09-05T12:02:42.178Z,1009.70
2018-09-05T12:03:42.168Z,1009.74
2018-09-05T12:04:42.179Z,1009.72
2018-09-05T12:05:42.147Z,1009.75